Terminal Aerodrome Forecast
Issued by NWS St Louis, MO

Home | Current Version | Previous Version | Text Only | Print | Product List | Glossary On
Versions: 1 2 3 4 5 6 7 8 9 10 11 12 13 14 15 16 17 18 19 20 21 22 23 24 25 26 27
000
FTUS43 KLSX 260425 AAB
TAFSTL
TAF AMD
KSTL 260425Z 2604/2706 29010KT P6SM VCTS SCT040CB BKN100
     FM260600 VRB04KT P6SM SCT050 BKN250
     FM261200 VRB04KT P6SM BKN040
     FM261800 09006KT P6SM BKN040=

USA.gov is the U.S. government's official web portal to all federal, state and local government web resources and services.